createdAt,value
2022-09-09T00:03:16.707Z,4.80
2022-09-09T00:20:14.040Z,6.00
2022-09-09T00:37:02.288Z,5.00
2022-09-09T00:54:12.113Z,5.80
2022-09-09T01:11:01.503Z,5.30
2022-09-09T01:27:53.300Z,5.90
2022-09-09T01:44:42.469Z,5.50
2022-09-09T02:01:43.941Z,5.90
2022-09-09T02:18:37.756Z,6.00
2022-09-09T02:35:29.671Z,6.30
2022-09-09T02:52:21.264Z,6.50
2022-09-09T03:09:11.665Z,5.90
2022-09-09T03:25:59.933Z,6.80
2022-09-09T03:42:47.874Z,6.20
2022-09-09T03:59:36.346Z,5.20
2022-09-09T04:16:24.417Z,5.10
2022-09-09T04:33:13.113Z,4.60
2022-09-09T04:50:01.859Z,4.70
2022-09-09T05:06:49.724Z,3.50
2022-09-09T05:23:38.112Z,3.80
2022-09-09T05:40:26.267Z,3.30
2022-09-09T05:57:14.474Z,3.50
2022-09-09T06:14:03.097Z,3.10
2022-09-09T06:30:59.815Z,3.70
2022-09-09T06:47:47.762Z,4.10
2022-09-09T07:04:35.850Z,4.40
2022-09-09T07:21:24.298Z,5.50
2022-09-09T07:38:12.400Z,5.90
2022-09-09T07:55:01.667Z,5.50
2022-09-09T08:11:50.832Z,10.50
2022-09-09T08:28:38.901Z,6.60
2022-09-09T08:45:36.969Z,6.70
2022-09-09T09:02:35.700Z,9.20
2022-09-09T09:19:27.387Z,9.00
2022-09-09T09:36:59.011Z,10.30
2022-09-09T09:53:54.094Z,9.90
2022-09-09T10:11:06.020Z,11.10
2022-09-09T10:28:20.655Z,11.50
2022-09-09T10:45:20.095Z,13.20
2022-09-09T11:02:20.940Z,14.10
2022-09-09T11:19:23.154Z,15.90
2022-09-09T11:36:28.259Z,16.10
2022-09-09T11:53:27.782Z,17.20
2022-09-09T12:10:30.980Z,17.80
2022-09-09T12:27:27.264Z,19.20
2022-09-09T12:44:16.535Z,19.10
2022-09-09T13:01:07.531Z,20.00
2022-09-09T13:18:02.033Z,22.10
2022-09-09T13:34:59.238Z,22.10
2022-09-09T13:51:51.872Z,20.70
2022-09-09T14:08:42.329Z,20.40
2022-09-09T14:25:31.052Z,19.20
2022-09-09T14:42:19.110Z,18.40
2022-09-09T14:59:07.717Z,18.50
2022-09-09T15:15:56.870Z,19.80
2022-09-09T15:32:46.153Z,19.20
2022-09-09T15:49:35.193Z,20.60
2022-09-09T16:06:26.821Z,18.50
2022-09-09T16:23:15.336Z,17.90
2022-09-09T16:40:04.693Z,16.60
2022-09-09T16:56:55.107Z,17.00
2022-09-09T17:13:47.872Z,15.90
2022-09-09T17:30:38.686Z,15.80
2022-09-09T17:47:27.714Z,15.50
2022-09-09T18:04:18.413Z,17.10
2022-09-09T18:21:08.673Z,15.90
2022-09-09T18:37:58.782Z,16.70
2022-09-09T18:54:48.610Z,16.40
2022-09-09T19:11:38.767Z,14.70
2022-09-09T19:28:27.869Z,13.00
2022-09-09T19:45:16.585Z,12.40
2022-09-09T20:02:07.433Z,12.80
2022-09-09T20:18:57.719Z,9.80
2022-09-09T20:35:46.804Z,10.10
2022-09-09T20:52:35.857Z,12.30
2022-09-09T21:09:24.882Z,13.00
2022-09-09T21:26:13.773Z,10.50
2022-09-09T21:43:04.599Z,10.60
2022-09-09T21:59:54.357Z,9.40
2022-09-09T22:16:42.424Z,10.60
2022-09-09T22:33:30.944Z,8.60
2022-09-09T22:50:22.169Z,9.00
2022-09-09T23:07:12.055Z,8.50
2022-09-09T23:24:03.344Z,7.70
2022-09-09T23:40:52.136Z,8.10
2022-09-09T23:57:40.528Z,7.10
